Time;durP1;ratioP1;P1;durP2;ratioP2;P2;SDS_P1;SDS_P2;PMS_P1;PMS_P2;Temp;Humidity;BMP_temperature;BMP_pressure;BME280_temperature;BME280_humidity;BME280_pressure;Samples;Min_cycle;Max_cycle;Signal;HPM_P1;HPM_P2
2021/04/30 00:01:08;;;;;;;5.33;2.20;;;8.50;99.90;;;;;;1842979;78;21063;-75
2021/04/30 00:03:34;;;;;;;13.00;2.00;;;8.50;99.90;;;;;;1843021;78;21580;-74
2021/04/30 00:06:00;;;;;;;3.05;2.02;;;8.50;99.90;;;;;;1843137;78;21599;-74
2021/04/30 00:08:27;;;;;;;4.97;1.85;;;8.50;99.90;;;;;;1843080;78;21078;-75
2021/04/30 00:10:53;;;;;;;6.33;2.37;;;8.50;99.90;;;;;;1843109;78;21074;-75
2021/04/30 00:13:19;;;;;;;3.83;1.95;;;8.50;99.90;;;;;;1848059;77;21059;-75
2021/04/30 00:15:48;;;;;;;3.55;1.60;;;8.60;99.90;;;;;;1855408;76;21116;-74
2021/04/30 00:18:14;;;;;;;1.55;1.45;;;8.60;99.90;;;;;;1854463;76;21102;-76
2021/04/30 00:20:46;;;;;;;2.02;1.75;;;8.60;99.90;;;;;;1854728;76;21512;-74
2021/04/30 00:23:12;;;;;;;2.52;1.95;;;8.70;99.90;;;;;;1851535;77;21086;-75
2021/04/30 00:25:35;;;;;;;4.00;1.60;;;8.70;99.90;;;;;;1854352;77;21090;-75
2021/04/30 00:28:01;;;;;;;3.17;2.10;;;8.70;99.90;;;;;;1855208;77;21214;-75
2021/04/30 00:30:28;;;;;;;1.85;1.70;;;8.80;99.90;;;;;;1855227;77;21148;-74
2021/04/30 00:32:54;;;;;;;1.45;1.35;;;8.80;99.90;;;;;;1855232;77;21082;-75
2021/04/30 00:35:20;;;;;;;1.57;1.47;;;8.80;99.90;;;;;;1855143;77;21309;-74
2021/04/30 00:37:46;;;;;;;2.25;1.70;;;8.70;99.90;;;;;;1855420;77;21439;-74
2021/04/30 00:40:12;;;;;;;3.98;1.90;;;8.80;99.90;;;;;;1855187;77;21547;-73
2021/04/30 00:42:38;;;;;;;2.60;1.98;;;8.80;99.90;;;;;;1855351;77;21564;-75
2021/04/30 00:45:04;;;;;;;3.60;2.05;;;8.90;99.90;;;;;;1855302;77;21082;-74
2021/04/30 00:47:30;;;;;;;3.08;1.57;;;8.90;99.90;;;;;;1855326;76;21270;-74
2021/04/30 00:49:58;;;;;;;1.80;1.55;;;8.90;99.90;;;;;;1855060;77;21051;-74
2021/04/30 00:52:24;;;;;;;1.62;1.52;;;8.80;99.90;;;;;;1855352;76;21179;-74
2021/04/30 00:54:50;;;;;;;1.57;1.47;;;8.80;99.90;;;;;;1855061;77;21554;-75
2021/04/30 00:57:18;;;;;;;1.85;1.65;;;8.80;99.90;;;;;;1855362;77;21513;-75
2021/04/30 00:59:44;;;;;;;1.67;1.50;;;8.70;99.90;;;;;;1855112;76;21156;-74
2021/04/30 01:02:10;;;;;;;1.42;1.32;;;8.60;99.90;;;;;;1855304;77;21129;-74
2021/04/30 01:04:37;;;;;;;2.00;1.80;;;8.60;99.90;;;;;;1855265;76;21097;-74
2021/04/30 01:07:03;;;;;;;1.92;1.77;;;8.60;99.90;;;;;;1855227;77;21168;-74
2021/04/30 01:09:29;;;;;;;2.02;1.70;;;8.60;99.90;;;;;;1855113;76;21140;-73
2021/04/30 01:11:55;;;;;;;2.12;1.90;;;8.60;99.90;;;;;;1855244;77;21140;-74
2021/04/30 01:14:21;;;;;;;1.40;1.30;;;8.50;99.90;;;;;;1855393;76;21158;-74
2021/04/30 01:16:47;;;;;;;2.25;1.90;;;8.60;99.90;;;;;;1855608;77;21090;-74
2021/04/30 01:19:13;;;;;;;1.92;1.65;;;8.60;99.90;;;;;;1855616;77;21099;-74
2021/04/30 01:21:55;;;;;;;2.00;1.85;;;8.50;99.90;;;;;;1855838;77;21548;-74
2021/04/30 01:24:21;;;;;;;4.40;2.17;;;8.60;99.90;;;;;;1855797;77;21083;-74
2021/04/30 01:26:47;;;;;;;3.20;2.37;;;8.60;99.90;;;;;;1855738;77;21152;-75
2021/04/30 01:29:14;;;;;;;2.52;2.08;;;8.70;99.90;;;;;;1855886;76;21055;-75
2021/04/30 01:31:40;;;;;;;3.47;2.20;;;8.80;99.90;;;;;;1855729;77;21670;-75
2021/04/30 01:34:06;;;;;;;2.77;2.52;;;8.70;99.90;;;;;;1855805;77;21506;-74
2021/04/30 01:36:32;;;;;;;3.00;2.47;;;8.70;99.90;;;;;;1855659;77;21090;-74
2021/04/30 01:38:58;;;;;;;2.20;2.00;;;8.70;99.90;;;;;;1855623;77;21144;-74
2021/04/30 01:41:24;;;;;;;2.95;2.27;;;8.70;99.90;;;;;;1855786;77;21189;-74
2021/04/30 01:43:51;;;;;;;5.92;2.47;;;8.70;99.90;;;;;;1855743;77;21580;-74
2021/04/30 01:46:17;;;;;;;3.62;2.22;;;8.80;99.90;;;;;;1855725;77;21439;-74
2021/04/30 01:48:43;;;;;;;3.98;2.90;;;8.80;99.90;;;;;;1855665;77;21043;-74
2021/04/30 01:51:09;;;;;;;2.42;2.20;;;8.70;99.90;;;;;;1855809;77;21080;-75
2021/04/30 01:53:35;;;;;;;4.17;2.50;;;8.80;99.90;;;;;;1855906;77;21099;-74
2021/04/30 01:56:01;;;;;;;3.47;2.45;;;8.80;99.90;;;;;;1855909;77;21090;-74
2021/04/30 01:58:27;;;;;;;2.60;2.30;;;8.90;99.90;;;;;;1855920;77;21086;-73
2021/04/30 02:00:53;;;;;;;2.92;2.33;;;9.00;99.90;;;;;;1855836;77;21170;-74
2021/04/30 02:03:20;;;;;;;3.55;2.62;;;8.90;99.90;;;;;;1855929;77;21051;-74
2021/04/30 02:05:46;;;;;;;2.83;2.12;;;8.80;99.90;;;;;;1855714;77;21120;-73
2021/04/30 02:08:12;;;;;;;2.60;2.22;;;8.80;99.90;;;;;;1855815;77;21082;-73
2021/04/30 02:10:38;;;;;;;3.35;2.52;;;8.80;99.90;;;;;;1855717;77;21089;-74
2021/04/30 02:13:04;;;;;;;3.08;2.37;;;8.80;99.90;;;;;;1855729;77;21179;-73
2021/04/30 02:15:30;;;;;;;7.50;3.20;;;8.80;99.90;;;;;;1855720;76;21593;-73
2021/04/30 02:17:57;;;;;;;4.45;3.00;;;8.70;99.90;;;;;;1855735;77;21420;-73
2021/04/30 02:20:23;;;;;;;7.10;2.52;;;8.70;99.90;;;;;;1855717;77;21130;-73
2021/04/30 02:22:51;;;;;;;6.25;2.83;;;8.80;99.90;;;;;;1855810;77;21149;-74
2021/04/30 02:25:18;;;;;;;3.55;2.67;;;8.80;99.90;;;;;;1855834;76;21094;-75
2021/04/30 02:27:46;;;;;;;4.97;2.87;;;8.80;99.90;;;;;;1855569;77;21152;-75
2021/04/30 02:30:12;;;;;;;5.12;2.95;;;8.80;99.90;;;;;;1855833;77;21086;-74
2021/04/30 02:32:38;;;;;;;3.65;3.00;;;8.80;99.90;;;;;;1855747;77;21074;-75
2021/04/30 02:35:04;;;;;;;3.35;2.60;;;8.90;99.90;;;;;;1855657;77;21067;-75
2021/04/30 02:37:30;;;;;;;4.42;2.85;;;8.90;99.90;;;;;;1855827;77;21133;-75
2021/04/30 02:39:56;;;;;;;2.77;2.52;;;8.90;99.90;;;;;;1855828;77;21090;-74
2021/04/30 02:42:23;;;;;;;4.40;2.83;;;8.80;99.90;;;;;;1855844;77;21051;-74
2021/04/30 02:44:49;;;;;;;3.35;2.67;;;8.80;99.90;;;;;;1855809;77;21153;-74
2021/04/30 02:47:15;;;;;;;5.53;3.47;;;8.80;99.90;;;;;;1855686;76;21047;-75
2021/04/30 02:49:46;;;;;;;5.60;2.90;;;8.80;99.90;;;;;;1855315;76;21051;-75
2021/04/30 02:52:09;;;;;;;5.70;2.87;;;8.70;99.90;;;;;;1852973;77;21043;-74
2021/04/30 02:54:35;;;;;;;3.75;3.00;;;8.60;99.90;;;;;;1849268;77;21541;-74
2021/04/30 02:57:01;;;;;;;5.95;2.95;;;8.60;99.90;;;;;;1843670;78;21464;-75
2021/04/30 02:59:27;;;;;;;13.58;2.90;;;8.50;99.90;;;;;;1843554;78;21545;-75
2021/04/30 03:01:54;;;;;;;2.70;2.50;;;8.50;99.90;;;;;;1843554;78;21464;-74
2021/04/30 03:04:20;;;;;;;4.65;3.00;;;8.50;99.90;;;;;;1843543;78;21082;-74
2021/04/30 03:06:46;;;;;;;5.03;3.45;;;8.40;99.90;;;;;;1844627;77;21042;-74
2021/04/30 03:09:12;;;;;;;4.70;3.20;;;8.40;99.90;;;;;;1855683;77;21078;-74
2021/04/30 03:11:38;;;;;;;3.72;2.80;;;8.30;99.90;;;;;;1854519;76;21242;-73
2021/04/30 03:14:04;;;;;;;4.45;2.85;;;8.30;99.90;;;;;;1855699;77;21150;-73
2021/04/30 03:16:30;;;;;;;3.27;2.75;;;8.30;99.90;;;;;;1855823;76;21083;-74
2021/04/30 03:18:56;;;;;;;3.67;2.30;;;8.30;99.90;;;;;;1855819;77;21132;-74
2021/04/30 03:21:22;;;;;;;4.15;2.58;;;8.30;99.90;;;;;;1855883;77;21070;-74
2021/04/30 03:23:49;;;;;;;3.02;2.58;;;8.20;99.90;;;;;;1855793;77;21144;-74
2021/04/30 03:26:15;;;;;;;4.42;3.08;;;8.20;99.90;;;;;;1855700;77;21070;-73
2021/04/30 03:28:41;;;;;;;6.92;2.90;;;8.20;99.90;;;;;;1855708;77;21118;-74
2021/04/30 03:31:07;;;;;;;6.37;3.17;;;8.30;99.90;;;;;;1855664;77;21043;-74
2021/04/30 03:33:33;;;;;;;4.62;3.15;;;8.30;99.90;;;;;;1855688;77;21082;-74
2021/04/30 03:35:59;;;;;;;8.95;3.08;;;8.20;99.90;;;;;;1855726;77;21514;-74
2021/04/30 03:38:25;;;;;;;4.22;3.05;;;8.30;99.90;;;;;;1855699;77;21536;-74
2021/04/30 03:40:51;;;;;;;5.90;3.22;;;8.30;99.90;;;;;;1855857;77;21510;-74
2021/04/30 03:43:18;;;;;;;5.37;3.15;;;8.40;99.90;;;;;;1855700;77;21149;-74
2021/04/30 03:45:44;;;;;;;4.80;3.10;;;8.40;99.90;;;;;;1855976;77;21043;-73
2021/04/30 03:48:10;;;;;;;5.90;3.05;;;8.40;99.90;;;;;;1855694;77;21078;-74
2021/04/30 03:50:36;;;;;;;4.30;3.17;;;8.60;99.90;;;;;;1855687;77;21169;-74
2021/04/30 03:53:02;;;;;;;4.25;2.80;;;8.50;99.90;;;;;;1855868;77;21141;-74
2021/04/30 03:55:28;;;;;;;4.40;2.85;;;8.50;99.90;;;;;;1855670;77;21079;-74
2021/04/30 03:57:54;;;;;;;5.37;3.10;;;8.40;99.90;;;;;;1855792;77;21047;-74
2021/04/30 04:00:20;;;;;;;5.45;3.55;;;8.40;99.90;;;;;;1855681;77;21104;-74
2021/04/30 04:02:47;;;;;;;4.20;3.10;;;8.30;99.90;;;;;;1843931;77;21502;-74
2021/04/30 04:05:13;;;;;;;3.37;2.77;;;8.30;99.90;;;;;;1855851;77;21047;-74
2021/04/30 04:07:39;;;;;;;4.35;3.10;;;8.30;99.90;;;;;;1855849;77;21043;-74
2021/04/30 04:10:06;;;;;;;5.72;3.52;;;8.30;99.90;;;;;;1855765;77;21152;-74
2021/04/30 04:12:32;;;;;;;6.12;3.05;;;8.30;99.90;;;;;;1855860;77;21466;-74
2021/04/30 04:14:58;;;;;;;3.45;2.98;;;8.40;99.90;;;;;;1855698;77;21497;-74
2021/04/30 04:17:24;;;;;;;4.87;3.42;;;8.40;99.90;;;;;;1855632;77;21502;-75
2021/04/30 04:19:50;;;;;;;6.05;3.33;;;8.40;99.90;;;;;;1855855;76;21148;-74
2021/04/30 04:22:16;;;;;;;8.33;4.25;;;8.40;99.90;;;;;;1855844;77;21011;-73
2021/04/30 04:24:42;;;;;;;6.33;4.00;;;8.40;99.90;;;;;;1855745;76;21132;-74
2021/04/30 04:27:08;;;;;;;4.55;3.45;;;8.40;99.90;;;;;;1855777;76;21136;-74
2021/04/30 04:29:35;;;;;;;10.72;3.47;;;8.30;99.90;;;;;;1855774;77;21074;-74
2021/04/30 04:32:01;;;;;;;3.77;3.00;;;8.40;99.90;;;;;;1855811;76;21187;-74
2021/04/30 04:34:27;;;;;;;6.60;3.25;;;8.40;99.90;;;;;;1855823;77;21141;-74
2021/04/30 04:36:53;;;;;;;5.17;3.25;;;8.40;99.90;;;;;;1855866;77;21069;-74
2021/04/30 04:39:19;;;;;;;6.65;3.37;;;8.40;99.90;;;;;;1855831;77;21082;-74
2021/04/30 04:41:45;;;;;;;6.92;3.77;;;8.30;99.90;;;;;;1855640;77;21078;-73
2021/04/30 04:44:11;;;;;;;5.97;3.15;;;8.20;99.90;;;;;;1855824;77;21118;-73
2021/04/30 04:46:37;;;;;;;4.83;3.00;;;8.40;99.90;;;;;;1855655;77;21083;-74
2021/04/30 04:49:04;;;;;;;4.85;3.58;;;8.40;99.90;;;;;;1855918;77;21040;-74
2021/04/30 04:51:30;;;;;;;5.87;3.58;;;8.50;99.90;;;;;;1855757;77;21576;-73
2021/04/30 04:53:56;;;;;;;5.92;3.37;;;8.50;99.90;;;;;;1855734;77;21532;-74
2021/04/30 04:56:25;;;;;;;9.90;3.55;;;8.50;99.90;;;;;;1855742;76;21513;-74
2021/04/30 04:58:50;;;;;;;4.28;3.27;;;8.50;99.90;;;;;;1855573;75;21098;-73
2021/04/30 05:01:16;;;;;;;7.42;4.00;;;8.40;99.90;;;;;;1855917;77;21075;-74
2021/04/30 05:03:42;;;;;;;5.10;3.40;;;8.50;99.90;;;;;;1855747;77;21141;-77
2021/04/30 05:06:08;;;;;;;4.65;3.62;;;8.60;99.90;;;;;;1855885;77;21064;-75
2021/04/30 05:08:34;;;;;;;5.05;3.83;;;8.70;99.90;;;;;;1855707;77;21071;-74
2021/04/30 05:11:00;;;;;;;4.30;3.72;;;8.60;99.90;;;;;;1855859;77;21175;-77
2021/04/30 05:13:26;;;;;;;8.68;3.70;;;8.70;99.90;;;;;;1855691;77;21074;-75
2021/04/30 05:15:53;;;;;;;5.78;4.00;;;8.70;99.90;;;;;;1855671;76;21087;-75
2021/04/30 05:18:19;;;;;;;6.22;3.85;;;8.80;99.90;;;;;;1855789;77;21075;-75
2021/04/30 05:20:45;;;;;;;6.12;4.22;;;8.80;99.90;;;;;;1855796;77;21047;-74
2021/04/30 05:23:11;;;;;;;5.40;4.05;;;8.90;99.90;;;;;;1855758;77;21187;-76
2021/04/30 05:25:37;;;;;;;5.72;3.72;;;8.80;99.90;;;;;;1855719;77;21074;-74
2021/04/30 05:28:03;;;;;;;6.67;4.20;;;8.80;99.90;;;;;;1854871;76;21098;-73
2021/04/30 05:30:29;;;;;;;4.62;3.72;;;8.70;99.90;;;;;;1855668;76;21102;-76
2021/04/30 05:32:55;;;;;;;6.78;3.83;;;8.70;99.90;;;;;;1855880;77;21246;-75
2021/04/30 05:35:22;;;;;;;9.45;4.80;;;8.60;99.90;;;;;;1855059;76;21514;-75
2021/04/30 05:37:48;;;;;;;5.25;4.03;;;8.60;99.90;;;;;;1855786;77;21493;-75
2021/04/30 05:40:14;;;;;;;4.67;3.75;;;8.60;99.90;;;;;;1861476;76;21477;-76
2021/04/30 05:42:41;;;;;;;6.95;4.33;;;8.60;99.90;;;;;;1850662;77;21071;-76
2021/04/30 05:45:07;;;;;;;5.22;3.67;;;8.80;99.90;;;;;;1843674;77;21137;-75
2021/04/30 05:47:33;;;;;;;6.35;4.08;;;8.90;99.90;;;;;;1843581;77;21075;-77
2021/04/30 05:49:59;;;;;;;9.50;4.47;;;8.90;99.90;;;;;;1843560;77;21043;-78
2021/04/30 05:52:25;;;;;;;7.87;4.75;;;8.70;99.90;;;;;;1843578;78;21086;-76
2021/04/30 05:54:51;;;;;;;5.37;3.65;;;8.60;99.90;;;;;;1843631;78;21624;-76
2021/04/30 05:57:18;;;;;;;6.87;4.35;;;8.90;99.90;;;;;;1843473;78;21494;-77
2021/04/30 05:59:44;;;;;;;4.42;3.67;;;9.00;99.90;;;;;;1843607;77;21549;-77
2021/04/30 06:02:10;;;;;;;5.72;3.90;;;9.00;99.90;;;;;;1843439;78;21078;-77
2021/04/30 06:04:36;;;;;;;5.33;3.52;;;9.00;99.90;;;;;;1843653;78;21044;-76
2021/04/30 06:07:02;;;;;;;5.25;3.85;;;9.30;99.90;;;;;;1843456;77;21079;-78
2021/04/30 06:09:28;;;;;;;4.45;3.60;;;9.60;99.90;;;;;;1843721;78;21083;-78
2021/04/30 06:11:54;;;;;;;5.45;4.08;;;9.60;99.90;;;;;;1843546;77;21079;-77
2021/04/30 06:14:21;;;;;;;5.03;3.77;;;9.30;99.90;;;;;;1843687;78;21079;-80
2021/04/30 06:16:48;;;;;;;5.62;3.35;;;9.60;99.90;;;;;;1843699;78;21569;-80
2021/04/30 06:19:14;;;;;;;6.30;4.03;;;9.60;99.90;;;;;;1843482;78;21149;-81
2021/04/30 06:21:40;;;;;;;6.12;3.77;;;9.60;99.90;;;;;;1843733;78;21044;-81
2021/04/30 06:24:06;;;;;;;5.65;3.65;;;9.50;99.90;;;;;;1843516;78;21145;-81
2021/04/30 06:26:33;;;;;;;6.58;3.98;;;9.70;99.90;;;;;;1843712;78;21075;-80
2021/04/30 06:28:59;;;;;;;7.42;3.70;;;9.80;99.90;;;;;;1843495;77;21083;-78
2021/04/30 06:31:25;;;;;;;6.25;3.67;;;9.70;99.90;;;;;;1843666;78;21149;-77
2021/04/30 06:33:51;;;;;;;5.58;4.12;;;9.80;99.90;;;;;;1843476;78;21203;-75
2021/04/30 06:36:17;;;;;;;6.33;3.62;;;9.90;99.90;;;;;;1854787;77;21565;-75
2021/04/30 06:38:43;;;;;;;7.35;4.12;;;10.00;99.90;;;;;;1855561;77;21467;-75
2021/04/30 06:41:09;;;;;;;5.50;3.58;;;10.10;99.90;;;;;;1855796;77;21498;-75
2021/04/30 06:43:35;;;;;;;8.08;4.00;;;10.10;99.90;;;;;;1855628;77;21160;-75
2021/04/30 06:46:02;;;;;;;4.30;3.05;;;10.00;99.90;;;;;;1855997;77;21129;-75
2021/04/30 06:48:28;;;;;;;6.53;4.15;;;10.00;99.90;;;;;;1857917;76;21148;-75
2021/04/30 06:50:55;;;;;;;6.20;3.65;;;9.90;99.90;;;;;;1843622;78;21079;-75
2021/04/30 06:53:21;;;;;;;5.03;3.67;;;9.70;99.90;;;;;;1843470;78;21146;-75
2021/04/30 06:55:47;;;;;;;5.70;3.33;;;9.60;99.90;;;;;;1843689;78;21166;-75
2021/04/30 06:58:13;;;;;;;4.47;3.42;;;9.40;99.90;;;;;;1843479;78;21148;-74
2021/04/30 07:00:39;;;;;;;7.30;4.10;;;9.50;99.90;;;;;;1843606;77;21760;-75
2021/04/30 07:03:05;;;;;;;8.48;3.60;;;9.50;99.90;;;;;;1843656;78;21532;-76
2021/04/30 07:05:32;;;;;;;4.72;3.50;;;9.60;99.90;;;;;;1849715;77;21608;-76
2021/04/30 07:08:01;;;;;;;7.80;3.83;;;9.50;99.90;;;;;;1855803;77;21079;-72
2021/04/30 07:10:26;;;;;;;6.00;3.77;;;9.50;99.90;;;;;;1855565;77;21164;-71
2021/04/30 07:15:27;;;;;;;5.50;3.70;;;9.40;99.90;;;;;;1953905;72;21086;-75
2021/04/30 07:17:54;;;;;;;7.53;3.50;;;9.40;99.90;;;;;;1942387;73;21039;-72
2021/04/30 07:20:20;;;;;;;12.33;4.08;;;9.50;99.90;;;;;;1952968;73;21039;-72
2021/04/30 07:22:46;;;;;;;7.53;3.42;;;9.40;99.90;;;;;;1952893;73;21124;-74
2021/04/30 07:25:12;;;;;;;5.30;4.08;;;9.40;99.90;;;;;;1952760;73;21034;-71
2021/04/30 07:27:38;;;;;;;6.75;3.75;;;9.30;99.90;;;;;;1952967;73;21109;-74
2021/04/30 07:30:05;;;;;;;5.80;4.08;;;9.40;99.90;;;;;;1952959;72;21085;-73
2021/04/30 07:32:32;;;;;;;7.55;4.10;;;9.20;99.90;;;;;;1952438;73;21431;-74
2021/04/30 07:34:58;;;;;;;4.85;3.60;;;9.20;99.90;;;;;;1949369;73;21183;-71
2021/04/30 07:37:25;;;;;;;11.22;3.72;;;9.20;99.90;;;;;;1944560;73;21121;-74
2021/04/30 07:39:51;;;;;;;8.03;4.37;;;9.40;99.90;;;;;;1952920;73;21070;-73
2021/04/30 07:42:17;;;;;;;6.17;3.37;;;9.70;99.90;;;;;;1952712;73;21066;-72
2021/04/30 07:44:43;;;;;;;7.22;3.80;;;9.80;99.90;;;;;;1953232;72;21066;-73
2021/04/30 07:47:10;;;;;;;8.05;3.83;;;9.80;99.90;;;;;;1948461;73;21070;-73
2021/04/30 07:49:36;;;;;;;6.35;3.92;;;9.90;99.90;;;;;;1952742;72;21147;-73
2021/04/30 07:52:02;;;;;;;7.67;4.17;;;10.10;99.90;;;;;;1952766;73;21139;-71
2021/04/30 07:54:28;;;;;;;8.65;4.78;;;10.00;99.90;;;;;;1953887;73;21634;-71
2021/04/30 07:56:54;;;;;;;5.62;3.62;;;9.70;99.90;;;;;;1953600;72;21489;-72
2021/04/30 07:59:20;;;;;;;6.60;4.60;;;9.70;99.90;;;;;;1952557;73;21473;-71
2021/04/30 08:01:46;;;;;;;9.70;4.28;;;9.80;99.90;;;;;;1952795;73;21493;-71
2021/04/30 08:04:13;;;;;;;7.03;4.28;;;10.00;99.90;;;;;;1952787;73;21062;-72
2021/04/30 08:06:39;;;;;;;7.85;4.40;;;10.00;99.90;;;;;;1952895;73;21195;-71
2021/04/30 08:09:05;;;;;;;8.60;3.67;;;10.20;99.90;;;;;;1952824;73;21070;-71
2021/04/30 08:11:31;;;;;;;9.98;4.58;;;10.20;99.90;;;;;;1952908;73;21058;-72
2021/04/30 08:13:57;;;;;;;6.25;3.72;;;10.00;99.90;;;;;;1952982;73;21067;-72
2021/04/30 08:16:24;;;;;;;5.40;3.77;;;9.90;99.90;;;;;;1953079;73;21066;-71
2021/04/30 08:18:50;;;;;;;4.67;3.42;;;10.00;99.90;;;;;;1953076;73;21567;-71
2021/04/30 08:21:16;;;;;;;5.28;3.75;;;10.00;99.90;;;;;;1953280;73;21066;-72
2021/04/30 08:23:42;;;;;;;8.65;4.12;;;9.90;99.90;;;;;;1953172;73;21116;-70
2021/04/30 08:26:08;;;;;;;8.28;4.08;;;10.00;99.90;;;;;;1953394;73;21070;-72
2021/04/30 08:28:34;;;;;;;7.35;3.60;;;10.00;99.90;;;;;;1953427;73;21018;-73
2021/04/30 08:31:00;;;;;;;6.60;3.83;;;10.00;99.90;;;;;;1953326;73;21070;-74
2021/04/30 08:33:26;;;;;;;6.62;4.28;;;10.00;99.90;;;;;;1953308;73;21019;-74
2021/04/30 08:35:53;;;;;;;6.80;4.62;;;9.80;99.90;;;;;;1952969;73;21136;-72
2021/04/30 08:38:19;;;;;;;6.47;3.70;;;9.80;99.90;;;;;;1953010;73;21218;-72
2021/04/30 08:40:46;;;;;;;4.70;3.75;;;9.90;99.90;;;;;;1953050;73;21086;-74
2021/04/30 08:43:13;;;;;;;11.73;4.05;;;10.00;99.90;;;;;;1952837;73;21165;-72
2021/04/30 08:45:40;;;;;;;9.38;4.72;;;10.10;99.90;;;;;;1952887;73;21110;-72
2021/04/30 08:48:06;;;;;;;8.93;4.10;;;10.00;99.90;;;;;;1952920;73;21096;-71
2021/04/30 08:50:32;;;;;;;7.28;4.20;;;10.20;99.90;;;;;;1953285;73;21124;-72
2021/04/30 08:52:58;;;;;;;6.25;3.90;;;10.30;99.90;;;;;;1953169;73;21109;-71
2021/04/30 08:55:25;;;;;;;11.68;5.10;;;10.50;99.90;;;;;;1953205;73;21137;-73
2021/04/30 08:57:55;;;;;;;13.90;4.28;;;10.70;99.90;;;;;;1953097;73;21036;-73
2021/04/30 09:00:19;;;;;;;6.53;4.30;;;10.70;99.90;;;;;;1951980;73;21102;-74
2021/04/30 09:02:45;;;;;;;8.35;4.33;;;10.80;99.90;;;;;;1953210;73;21050;-73
2021/04/30 09:05:12;;;;;;;6.00;3.67;;;10.80;99.90;;;;;;1953297;73;21066;-73
2021/04/30 09:07:38;;;;;;;3.85;3.45;;;10.90;99.90;;;;;;1953309;73;21548;-72
2021/04/30 09:10:04;;;;;;;6.17;4.00;;;11.20;99.90;;;;;;1953249;73;21112;-73
2021/04/30 09:12:31;;;;;;;12.25;4.37;;;11.30;99.90;;;;;;1953143;73;21059;-72
2021/04/30 09:14:57;;;;;;;5.03;4.00;;;11.10;99.90;;;;;;1953029;73;21058;-71
2021/04/30 09:17:23;;;;;;;14.07;4.87;;;11.40;99.90;;;;;;1953083;73;21070;-70
2021/04/30 09:19:53;;;;;;;4.78;3.65;;;11.50;99.90;;;;;;1953319;73;21102;-72
2021/04/30 09:22:19;;;;;;;7.78;3.55;;;11.50;99.90;;;;;;1953374;73;21442;-72
2021/04/30 09:24:45;;;;;;;5.10;3.92;;;11.20;99.90;;;;;;1953195;73;21031;-72
2021/04/30 09:27:12;;;;;;;9.33;3.83;;;11.10;99.90;;;;;;1953224;73;21062;-71
2021/04/30 09:29:38;;;;;;;5.67;4.10;;;11.10;99.90;;;;;;1953196;73;21062;-72
2021/04/30 09:32:04;;;;;;;7.30;3.98;;;10.90;99.90;;;;;;1953164;73;21062;-73
2021/04/30 09:34:30;;;;;;;19.52;4.47;;;10.60;99.90;;;;;;1953174;73;21043;-72
2021/04/30 09:36:56;;;;;;;9.35;3.47;;;10.50;99.90;;;;;;1953032;73;21145;-72
2021/04/30 09:39:22;;;;;;;6.08;4.10;;;10.50;99.90;;;;;;1953103;73;21081;-74
2021/04/30 09:41:49;;;;;;;5.55;3.83;;;10.50;99.90;;;;;;1953190;73;21126;-72
2021/04/30 09:44:15;;;;;;;7.50;4.10;;;10.60;99.90;;;;;;1953187;73;21472;-72
2021/04/30 09:46:41;;;;;;;6.78;3.85;;;10.70;99.90;;;;;;1953144;73;21559;-71
2021/04/30 09:49:15;;;;;;;6.35;3.70;;;10.70;99.90;;;;;;1953095;73;21462;-72
2021/04/30 09:51:40;;;;;;;4.87;3.55;;;10.70;99.90;;;;;;1953008;73;21091;-72
2021/04/30 09:54:07;;;;;;;11.10;3.95;;;10.70;99.90;;;;;;1953264;73;21066;-73
2021/04/30 09:56:33;;;;;;;9.88;4.45;;;10.70;99.90;;;;;;1953248;73;21225;-74
2021/04/30 09:58:59;;;;;;;5.25;4.03;;;10.70;99.90;;;;;;1953358;73;21173;-72
2021/04/30 10:01:25;;;;;;;5.47;3.98;;;10.70;99.90;;;;;;1954211;73;21058;-71
2021/04/30 10:03:52;;;;;;;6.28;4.70;;;10.60;99.90;;;;;;1954552;73;21035;-75
2021/04/30 10:06:20;;;;;;;5.10;3.80;;;10.40;99.90;;;;;;1954769;73;21151;-72
2021/04/30 10:08:46;;;;;;;7.20;4.70;;;10.50;99.90;;;;;;1953611;73;21469;-72
2021/04/30 10:11:12;;;;;;;8.10;4.55;;;10.50;99.90;;;;;;1953270;73;21504;-75
2021/04/30 10:13:39;;;;;;;6.40;4.50;;;10.60;99.90;;;;;;1955485;73;21387;-75
2021/04/30 10:16:05;;;;;;;9.23;4.85;;;10.60;99.90;;;;;;1953255;73;21160;-75
2021/04/30 10:18:31;;;;;;;6.92;4.62;;;10.40;99.90;;;;;;1949427;72;21071;-75
2021/04/30 10:20:57;;;;;;;10.30;5.15;;;10.60;99.90;;;;;;1953181;73;21039;-74
2021/04/30 10:23:23;;;;;;;7.87;5.03;;;10.70;99.90;;;;;;1953224;73;21132;-74
2021/04/30 10:25:49;;;;;;;6.40;4.37;;;10.50;99.90;;;;;;1953246;73;21183;-75
2021/04/30 10:28:15;;;;;;;6.80;4.58;;;10.60;99.90;;;;;;1953414;73;21074;-76
2021/04/30 10:30:42;;;;;;;6.37;4.00;;;10.70;99.90;;;;;;1953189;73;21080;-74
2021/04/30 10:33:08;;;;;;;9.93;4.90;;;10.70;99.90;;;;;;1953170;73;21466;-74
2021/04/30 10:35:34;;;;;;;8.78;4.75;;;10.60;99.90;;;;;;1953295;73;21540;-73
2021/04/30 10:38:00;;;;;;;11.25;5.12;;;10.50;99.90;;;;;;1953086;73;21449;-74
2021/04/30 10:40:27;;;;;;;14.23;5.28;;;10.40;99.90;;;;;;1953167;73;21481;-74
2021/04/30 10:42:53;;;;;;;6.58;4.90;;;10.20;99.90;;;;;;1953104;73;21078;-75
2021/04/30 10:45:20;;;;;;;7.65;5.05;;;9.90;99.90;;;;;;1953100;73;21142;-75
2021/04/30 10:47:46;;;;;;;8.13;5.17;;;9.90;99.90;;;;;;1953041;73;21201;-75
2021/04/30 10:50:12;;;;;;;6.45;4.87;;;9.80;99.90;;;;;;1953354;73;21129;-75
2021/04/30 10:52:39;;;;;;;8.43;5.35;;;9.70;99.90;;;;;;1953060;73;21079;-75
2021/04/30 10:55:05;;;;;;;13.90;5.30;;;9.60;99.90;;;;;;1953097;73;21074;-74
2021/04/30 10:57:31;;;;;;;9.48;5.75;;;9.70;99.90;;;;;;1953219;73;21144;-75
2021/04/30 10:59:58;;;;;;;8.10;5.50;;;9.50;99.90;;;;;;1953052;73;21140;-75
2021/04/30 11:02:26;;;;;;;9.93;6.20;;;9.40;99.90;;;;;;1953249;73;21152;-75
2021/04/30 11:04:52;;;;;;;10.45;5.78;;;9.20;99.90;;;;;;1953012;73;21489;-75
2021/04/30 11:07:18;;;;;;;13.38;6.40;;;9.10;99.90;;;;;;1952834;73;21451;-75
2021/04/30 11:09:44;;;;;;;9.25;6.60;;;9.00;99.90;;;;;;1952857;73;21074;-75
2021/04/30 11:12:10;;;;;;;12.13;6.75;;;9.00;99.90;;;;;;1952949;73;21238;-75
2021/04/30 11:14:36;;;;;;;11.50;6.62;;;8.90;99.90;;;;;;1952932;73;21070;-75
2021/04/30 11:17:03;;;;;;;9.75;6.80;;;8.90;99.90;;;;;;1952808;73;21050;-75
2021/04/30 11:19:29;;;;;;;14.83;7.50;;;8.80;99.90;;;;;;1952855;73;21572;-79
2021/04/30 11:21:56;;;;;;;10.65;7.35;;;8.80;99.90;;;;;;1952840;73;21136;-75
2021/04/30 11:24:22;;;;;;;12.45;7.85;;;8.80;99.90;;;;;;1952734;73;21085;-75
2021/04/30 11:26:48;;;;;;;14.80;7.90;;;8.90;99.90;;;;;;1952939;73;21454;-75
2021/04/30 11:29:14;;;;;;;11.73;7.10;;;8.80;99.90;;;;;;1952679;73;21140;-75
2021/04/30 11:31:40;;;;;;;17.15;7.58;;;8.80;99.90;;;;;;1952845;73;21070;-76
2021/04/30 11:34:07;;;;;;;17.95;7.55;;;8.60;99.90;;;;;;1952705;73;21012;-80
2021/04/30 11:36:33;;;;;;;10.20;7.03;;;8.70;99.90;;;;;;1952742;73;21070;-77
2021/04/30 11:38:59;;;;;;;8.30;6.60;;;8.60;99.90;;;;;;1952809;73;21066;-77
2021/04/30 11:41:25;;;;;;;10.30;6.50;;;8.50;99.90;;;;;;1952850;73;21034;-77
2021/04/30 11:43:51;;;;;;;9.43;6.20;;;8.40;99.90;;;;;;1952906;73;21067;-77
2021/04/30 11:46:19;;;;;;;17.65;7.22;;;8.20;99.90;;;;;;1953601;73;21521;-77
2021/04/30 11:48:45;;;;;;;9.95;6.17;;;8.20;99.90;;;;;;1953354;73;21190;-78
2021/04/30 11:51:11;;;;;;;8.78;6.22;;;8.00;99.90;;;;;;1953525;73;21039;-77
2021/04/30 11:53:37;;;;;;;8.98;6.58;;;8.10;99.90;;;;;;1953676;73;21039;-77
2021/04/30 11:56:03;;;;;;;7.42;6.22;;;8.00;99.90;;;;;;1953538;73;21071;-79
2021/04/30 11:58:30;;;;;;;10.40;6.90;;;7.90;99.90;;;;;;1953595;73;21126;-78
2021/04/30 12:00:56;;;;;;;20.50;7.90;;;8.00;99.90;;;;;;1953564;73;21066;-78
2021/04/30 12:03:22;;;;;;;13.68;7.20;;;8.00;99.90;;;;;;1953233;73;21074;-77
2021/04/30 12:05:48;;;;;;;10.72;7.67;;;8.00;99.90;;;;;;1953374;73;21070;-77
2021/04/30 12:08:14;;;;;;;13.32;7.45;;;8.10;99.90;;;;;;1953084;73;21141;-77
2021/04/30 12:10:40;;;;;;;11.93;7.65;;;8.10;99.90;;;;;;1953241;73;21074;-78
2021/04/30 12:13:07;;;;;;;17.57;7.10;;;8.00;99.90;;;;;;1953080;73;21074;-82
2021/04/30 12:15:33;;;;;;;18.73;7.58;;;8.10;99.90;;;;;;1953170;73;21074;-80
2021/04/30 12:17:59;;;;;;;10.55;6.97;;;8.00;99.90;;;;;;1953224;73;21122;-81
2021/04/30 12:20:25;;;;;;;12.35;7.55;;;8.00;99.90;;;;;;1953223;73;21042;-80
2021/04/30 12:22:53;;;;;;;9.20;7.28;;;7.90;99.90;;;;;;1953316;73;21119;-76
2021/04/30 12:25:19;;;;;;;12.80;7.20;;;7.80;99.90;;;;;;1950414;72;21060;-76
2021/04/30 12:27:45;;;;;;;12.85;7.58;;;7.80;99.90;;;;;;1954088;73;21125;-77
2021/04/30 12:30:11;;;;;;;8.38;6.87;;;7.80;99.90;;;;;;1953043;73;21071;-75
2021/04/30 12:32:37;;;;;;;10.88;7.47;;;7.90;99.90;;;;;;1953153;73;21092;-74
2021/04/30 12:35:04;;;;;;;9.88;7.42;;;8.00;99.90;;;;;;1953161;73;21066;-76
2021/04/30 12:37:31;;;;;;;10.65;7.15;;;8.00;99.90;;;;;;1952982;73;21143;-76
2021/04/30 12:39:57;;;;;;;13.70;6.97;;;7.90;99.90;;;;;;1953262;73;21032;-76
2021/04/30 12:42:25;;;;;;;11.20;7.08;;;8.00;99.90;;;;;;1952917;73;21062;-78
2021/04/30 12:44:55;;;;;;;11.12;6.72;;;8.00;99.90;;;;;;1953018;73;21528;-76
2021/04/30 12:47:19;;;;;;;9.78;6.30;;;8.00;99.90;;;;;;1952475;72;21192;-76
2021/04/30 12:49:45;;;;;;;16.27;7.53;;;8.00;99.90;;;;;;1953171;72;21047;-78